Time;durP1;ratioP1;P1;durP2;ratioP2;P2;SDS_P1;SDS_P2;PMS_P1;PMS_P2;Temp;Humidity;BMP_temperature;BMP_pressure;BME280_temperature;BME280_humidity;BME280_pressure;Samples;Min_cycle;Max_cycle;Signal;HPM_P1;HPM_P2
2021/11/12 00:02:44;;;;;;;10.20;8.70;;;;;;;13.25;44.15;100205.31;1785708;79;21105;-70
2021/11/12 00:11:51;;;;;;;10.10;8.83;;;;;;;13.24;44.15;100202.30;1781656;79;21027;-67
2021/11/12 00:13:12;;;;;;;12.28;9.23;;;;;;;13.23;44.17;100197.98;1793255;79;21029;-67
2021/11/12 00:15:41;;;;;;;11.00;8.83;;;;;;;13.21;44.18;100189.30;1803212;78;21081;-68
2021/11/12 00:18:05;;;;;;;10.55;9.28;;;;;;;13.20;44.20;100178.83;1778731;80;21077;-66
2021/11/12 00:20:32;;;;;;;12.05;9.05;;;;;;;13.20;44.18;100186.83;1808676;78;21852;-67
2021/11/12 00:22:58;;;;;;;9.58;8.45;;;;;;;13.17;44.19;100168.84;1775320;78;21098;-67
2021/11/12 00:25:24;;;;;;;10.55;8.48;;;;;;;13.18;44.18;100174.99;1775492;78;21025;-67
2021/11/12 00:27:51;;;;;;;10.75;8.23;;;;;;;13.19;44.18;100175.30;1780925;80;21040;-66
2021/11/12 00:35:37;;;;;;;8.83;7.72;;;;;;;13.18;44.18;100163.81;1782459;79;21501;-68
2021/11/12 00:38:04;;;;;;;9.08;8.15;;;;;;;13.16;44.19;100163.16;1789344;79;21478;-68
2021/11/12 00:40:33;;;;;;;10.72;8.85;;;;;;;13.16;44.18;100167.16;1789613;79;20993;-67
2021/11/12 00:45:30;;;;;;;11.18;8.25;;;;;;;13.16;44.19;100169.00;1782196;79;21131;-68
2021/11/12 00:48:09;;;;;;;10.70;8.88;;;;;;;13.14;44.21;100159.02;1756922;79;21053;-67
2021/11/12 00:50:53;;;;;;;9.55;8.53;;;;;;;13.14;44.20;100151.01;1789261;79;21553;-67
2021/11/12 00:55:30;;;;;;;10.65;8.93;;;;;;;13.13;44.20;100150.19;1789866;79;21577;-68
2021/11/12 00:57:57;;;;;;;10.08;8.45;;;;;;;13.12;44.22;100141.84;1778883;79;22633;-67
2021/11/12 01:00:24;;;;;;;10.40;8.55;;;;;;;13.12;44.18;100143.69;1792433;79;21561;-67
2021/11/12 01:02:51;;;;;;;9.43;8.45;;;;;;;13.11;44.19;100146.83;1789685;79;21143;-67
2021/11/12 01:05:18;;;;;;;10.43;8.38;;;;;;;13.11;44.21;100136.16;1776487;79;21040;-67
2021/11/12 01:07:46;;;;;;;10.43;8.50;;;;;;;13.10;44.19;100130.52;1787179;79;21028;-67
2021/11/12 01:10:14;;;;;;;11.60;8.95;;;;;;;13.10;44.19;100129.19;1771455;79;21213;-67
2021/11/12 01:12:42;;;;;;;9.65;8.40;;;;;;;13.10;44.21;100126.52;1786685;79;21103;-68
2021/11/12 01:15:15;;;;;;;10.13;8.70;;;;;;;13.09;44.22;100130.17;1771778;79;21604;-67
2021/11/12 01:17:41;;;;;;;10.45;8.85;;;;;;;13.09;44.23;100132.02;1794495;79;21014;-67
2021/11/12 01:20:09;;;;;;;10.05;8.58;;;;;;;13.08;44.20;100123.70;1785481;79;21025;-67
2021/11/12 01:22:35;;;;;;;10.60;9.08;;;;;;;13.08;44.22;100123.20;1788833;79;21120;-68
2021/11/12 01:25:05;;;;;;;9.70;8.65;;;;;;;13.08;44.22;100117.86;1784994;79;21034;-67
2021/11/12 01:27:34;;;;;;;9.50;8.18;;;;;;;13.07;44.23;100114.85;1788703;79;21037;-66
2021/11/12 01:30:00;;;;;;;10.93;9.28;;;;;;;13.06;44.21;100105.20;1772855;80;21628;-67
2021/11/12 01:32:27;;;;;;;10.43;8.58;;;;;;;13.07;44.23;100108.70;1775513;80;21061;-67
2021/11/12 01:34:56;;;;;;;10.23;8.55;;;;;;;13.06;44.24;100103.88;1781021;80;21154;-67
2021/11/12 01:37:24;;;;;;;10.98;9.03;;;;;;;13.06;44.24;100105.20;1781623;80;21424;-68
2021/11/12 01:39:55;;;;;;;10.72;8.53;;;;;;;13.05;44.24;100099.53;1771772;80;21060;-68
2021/11/12 01:42:22;;;;;;;10.10;8.63;;;;;;;13.05;44.25;100106.20;1778632;80;21564;-68
2021/11/12 01:45:08;;;;;;;11.03;9.05;;;;;;;13.04;44.26;100108.55;1768092;80;21050;-68
2021/11/12 01:47:45;;;;;;;10.72;8.45;;;;;;;13.03;44.25;100101.55;1776131;80;21091;-67
2021/11/12 01:50:15;;;;;;;10.35;8.98;;;;;;;13.03;44.27;100100.72;1772796;80;21660;-66
2021/11/12 01:52:43;;;;;;;10.75;8.95;;;;;;;13.02;44.27;100103.05;1777735;80;20983;-67
2021/11/12 01:55:17;;;;;;;10.58;8.48;;;;;;;12.99;44.30;100094.91;1779197;80;21021;-66
2021/11/12 01:57:53;;;;;;;10.68;8.75;;;;;;;13.01;44.30;100099.55;1780396;80;21015;-67
2021/11/12 02:00:20;;;;;;;9.80;8.73;;;;;;;12.99;44.32;100101.57;1778908;80;21519;-67
2021/11/12 02:02:47;;;;;;;10.72;8.88;;;;;;;12.99;44.32;100093.56;1767057;80;21066;-68
2021/11/12 02:05:16;;;;;;;9.83;8.83;;;;;;;12.97;44.32;100096.41;1783488;80;21056;-67
2021/11/12 02:07:43;;;;;;;11.33;8.80;;;;;;;12.97;44.32;100087.58;1775620;80;21050;-66
2021/11/12 02:10:16;;;;;;;9.20;8.10;;;;;;;12.97;44.33;100086.25;1776713;80;21573;-67
2021/11/12 02:12:53;;;;;;;10.18;9.13;;;;;;;12.96;44.34;100088.09;1759807;80;21778;-68
2021/11/12 02:15:14;;;;;;;10.63;8.83;;;;;;;12.97;44.33;100091.58;1777966;79;21100;-68
2021/11/12 02:17:45;;;;;;;10.20;8.00;;;;;;;12.96;44.35;100091.23;1762920;80;20997;-67
2021/11/12 02:20:19;;;;;;;9.83;8.73;;;;;;;12.96;44.35;100083.23;1772173;79;21049;-68
2021/11/12 02:22:45;;;;;;;10.08;8.80;;;;;;;12.95;44.35;100090.92;1789972;79;20990;-67
2021/11/12 02:25:25;;;;;;;9.85;7.97;;;;;;;12.94;44.38;100087.44;1758785;80;21137;-68
2021/11/12 02:30:16;;;;;;;10.40;9.18;;;;;;;12.93;44.38;100091.61;1805908;79;20994;-68
2021/11/12 02:32:38;;;;;;;9.60;8.60;;;;;;;12.92;44.37;100089.45;1782833;80;21061;-67
2021/11/12 02:35:05;;;;;;;10.82;9.33;;;;;;;12.92;44.37;100088.12;1792243;78;21066;-68
2021/11/12 02:37:32;;;;;;;10.50;9.10;;;;;;;12.92;44.38;100081.94;1806784;78;21233;-67
2021/11/12 02:39:59;;;;;;;10.48;8.50;;;;;;;12.91;44.40;100081.63;1755748;78;21557;-68
2021/11/12 02:42:26;;;;;;;9.78;8.58;;;;;;;12.91;44.40;100072.29;1788756;79;21096;-68
2021/11/12 02:44:53;;;;;;;10.68;8.63;;;;;;;12.91;44.41;100078.95;1782176;79;21529;-67
2021/11/12 02:47:20;;;;;;;9.70;8.63;;;;;;;12.90;44.40;100084.80;1781090;79;21037;-68
2021/11/12 02:49:47;;;;;;;9.23;7.90;;;;;;;12.90;44.41;100087.95;1785982;79;21148;-68
2021/11/12 02:52:17;;;;;;;9.55;8.28;;;;;;;12.90;44.38;100085.28;1785740;79;21400;-67
2021/11/12 02:54:42;;;;;;;10.70;8.93;;;;;;;12.89;44.42;100088.45;1790249;79;22051;-68
2021/11/12 02:57:08;;;;;;;11.00;9.18;;;;;;;12.89;44.42;100083.63;1772736;79;21500;-67
2021/11/12 02:59:36;;;;;;;10.15;8.65;;;;;;;12.89;44.42;100080.97;1786823;79;21611;-67
2021/11/12 03:02:08;;;;;;;10.08;8.70;;;;;;;12.88;44.42;100077.95;1783470;79;23278;-67
2021/11/12 03:04:32;;;;;;;11.12;8.98;;;;;;;12.87;44.43;100079.80;1780571;79;21037;-66
2021/11/12 03:06:59;;;;;;;10.60;9.23;;;;;;;12.87;44.44;100077.65;1784146;79;21037;-68
2021/11/12 03:09:28;;;;;;;9.65;8.65;;;;;;;12.85;44.44;100066.33;1780808;79;21013;-66
2021/11/12 03:11:57;;;;;;;10.85;9.10;;;;;;;12.85;44.44;100073.00;1778493;79;21065;-66
2021/11/12 03:14:23;;;;;;;9.65;8.15;;;;;;;12.86;44.45;100075.97;1776429;79;21120;-67
2021/11/12 03:16:51;;;;;;;11.08;9.10;;;;;;;12.86;44.44;100084.79;1792201;79;21001;-69
2021/11/12 03:19:19;;;;;;;10.18;9.08;;;;;;;12.85;44.47;100079.66;1777434;79;21019;-67
2021/11/12 03:21:46;;;;;;;9.65;8.38;;;;;;;12.84;44.45;100069.98;1751500;79;21105;-68
2021/11/12 03:26:52;;;;;;;10.58;8.68;;;;;;;12.83;44.47;100072.34;1772919;79;21808;-67
2021/11/12 03:56:38;;;;;;;9.65;8.65;;;;;;;12.70;44.64;100060.38;1764739;79;21008;-68
2021/11/12 04:01:53;;;;;;;12.33;9.58;;;;;;;12.68;44.69;100054.40;1770089;79;21110;-67
2021/11/12 04:06:49;;;;;;;11.12;9.33;;;;;;;12.67;44.71;100050.56;1775049;79;21999;-67
2021/11/12 05:51:55;;;;;;;12.07;10.80;;;;;;;12.44;45.13;100109.13;1775278;79;21552;-66
2021/11/12 05:56:57;;;;;;;11.10;9.35;;;;;;;12.45;45.13;100113.47;1775097;79;21060;-67
2021/11/12 05:59:24;;;;;;;11.95;9.80;;;;;;;12.44;45.15;100117.11;1782974;79;21109;-67
2021/11/12 06:01:51;;;;;;;11.70;10.20;;;;;;;12.45;45.13;100112.13;1772978;79;21037;-66
2021/11/12 06:04:21;;;;;;;12.60;9.98;;;;;;;12.46;45.15;100117.77;1774216;79;21013;-67
2021/11/12 06:06:47;;;;;;;12.88;10.75;;;;;;;12.46;45.14;100118.63;1801519;78;21203;-66
2021/11/12 06:09:14;;;;;;;11.45;9.30;;;;;;;12.47;45.14;100114.13;1765048;80;21132;-66
2021/11/12 06:11:40;;;;;;;11.97;10.18;;;;;;;12.48;45.17;100117.95;1791393;78;21037;-66
2021/11/12 06:14:07;;;;;;;12.70;10.50;;;;;;;12.49;45.16;100113.45;1808632;78;21096;-66
2021/11/12 06:16:33;;;;;;;13.18;11.15;;;;;;;12.51;45.15;100120.77;1809073;78;22000;-66
2021/11/12 06:19:00;;;;;;;11.57;10.32;;;;;;;12.52;45.15;100122.44;1775867;79;21888;-67
2021/11/12 06:21:27;;;;;;;14.47;10.00;;;;;;;12.53;45.14;100124.09;1783626;79;21509;-66
2021/11/12 06:23:53;;;;;;;12.88;10.70;;;;;;;12.53;45.13;100110.77;1767673;79;21080;-66
2021/11/12 06:26:21;;;;;;;13.28;10.70;;;;;;;12.55;45.14;100111.42;1764995;79;21758;-67
2021/11/12 06:28:47;;;;;;;12.68;10.20;;;;;;;12.56;45.12;100123.76;1767564;79;21052;-67
2021/11/12 06:31:13;;;;;;;11.33;10.13;;;;;;;12.58;45.10;100124.42;1774954;79;22348;-68
2021/11/12 06:33:40;;;;;;;11.12;10.03;;;;;;;12.58;45.12;100121.23;1781228;79;22027;-69
2021/11/12 06:36:06;;;;;;;12.15;10.60;;;;;;;12.59;45.12;100117.59;1772922;79;21020;-68
2021/11/12 06:38:34;;;;;;;11.43;9.98;;;;;;;12.61;45.11;100118.72;1777615;79;21076;-69
2021/11/12 06:41:07;;;;;;;13.48;10.53;;;;;;;12.63;45.12;100122.55;1783044;79;21057;-68
2021/11/12 06:43:42;;;;;;;10.88;9.78;;;;;;;12.64;45.09;100120.23;1773433;79;21155;-70
2021/11/12 06:51:34;;;;;;;12.10;10.88;;;;;;;12.67;45.11;100115.88;1782374;79;21057;-68
2021/11/12 06:54:00;;;;;;;12.35;10.53;;;;;;;12.68;45.12;100112.22;1776464;79;21379;-68
2021/11/12 06:56:26;;;;;;;11.75;10.43;;;;;;;12.50;45.15;100082.63;1780179;79;21547;-68
2021/11/12 06:58:54;;;;;;;11.55;10.28;;;;;;;12.70;45.13;100104.37;1774993;79;21009;-69
2021/11/12 07:01:20;;;;;;;11.78;10.53;;;;;;;12.72;45.13;100105.53;1785793;79;21056;-68
2021/11/12 07:03:46;;;;;;;11.65;10.20;;;;;;;12.73;45.12;100109.37;1788340;79;21111;-68
2021/11/12 07:06:13;;;;;;;12.37;10.38;;;;;;;12.74;45.15;100104.34;1771228;79;21397;-67
2021/11/12 07:08:40;;;;;;;11.55;10.18;;;;;;;12.77;45.14;100101.34;1770981;79;21168;-68
2021/11/12 07:11:08;;;;;;;13.25;10.78;;;;;;;12.79;45.12;100097.18;1791870;79;21001;-67
2021/11/12 07:13:34;;;;;;;13.45;10.45;;;;;;;12.81;45.13;100099.17;1764452;79;21041;-68
2021/11/12 07:16:01;;;;;;;12.13;10.40;;;;;;;12.83;45.10;100094.49;1767255;79;21037;-70
2021/11/12 07:18:29;;;;;;;13.30;10.28;;;;;;;12.86;45.10;100094.13;1775847;79;21049;-66
2021/11/12 07:20:56;;;;;;;13.18;11.15;;;;;;;12.88;45.12;100092.63;1776425;79;21134;-65
2021/11/12 07:23:24;;;;;;;12.40;10.65;;;;;;;12.90;45.12;100098.61;1776262;79;21028;-64
2021/11/12 07:25:51;;;;;;;11.83;10.28;;;;;;;12.92;45.41;100098.78;1768545;79;21129;-65
2021/11/12 07:28:18;;;;;;;12.65;10.95;;;;;;;12.94;45.46;100100.77;1766102;79;21055;-63
2021/11/12 07:30:46;;;;;;;13.00;10.53;;;;;;;12.97;45.49;100100.92;1785964;79;21067;-63
2021/11/12 07:33:14;;;;;;;11.60;10.40;;;;;;;13.00;45.51;100096.58;1774655;79;21937;-65
2021/11/12 07:35:56;;;;;;;12.05;10.75;;;;;;;13.02;45.49;100093.71;1806388;78;21106;-64
2021/11/12 07:38:26;;;;;;;11.75;10.55;;;;;;;13.05;45.47;100095.53;1803281;78;21065;-65
2021/11/12 07:48:25;;;;;;;12.07;10.70;;;;;;;13.14;45.35;100100.33;1790003;78;21029;-64
2021/11/12 07:50:51;;;;;;;11.57;10.38;;;;;;;13.17;45.31;100096.81;1794571;78;21049;-64
2021/11/12 07:53:17;;;;;;;13.00;11.55;;;;;;;13.21;45.30;100104.44;1783292;78;21537;-65
2021/11/12 07:55:44;;;;;;;13.78;11.38;;;;;;;13.24;45.24;100099.59;1794883;78;21579;-67
2021/11/12 07:58:12;;;;;;;12.37;10.50;;;;;;;13.29;45.21;100099.05;1777295;80;22551;-64
2021/11/12 08:00:38;;;;;;;12.47;10.60;;;;;;;13.32;45.22;100099.56;1767577;80;21061;-64
2021/11/12 08:03:04;;;;;;;12.90;10.40;;;;;;;13.36;45.19;100100.86;1778655;80;21506;-63
2021/11/12 08:05:37;;;;;;;11.12;9.93;;;;;;;13.41;45.17;100103.52;1779031;79;21549;-62
2021/11/12 08:08:05;;;;;;;11.22;10.08;;;;;;;13.45;45.16;100100.31;1795805;79;21030;-63
2021/11/12 08:10:32;;;;;;;13.90;10.68;;;;;;;13.50;45.13;100101.95;1800723;78;21417;-64
2021/11/12 08:13:11;;;;;;;11.25;10.05;;;;;;;13.52;45.08;100095.08;1789415;78;21092;-65
2021/11/12 08:15:37;;;;;;;11.73;9.85;;;;;;;13.61;45.05;100095.86;1808986;78;21119;-64
2021/11/12 08:18:42;;;;;;;11.20;10.05;;;;;;;13.68;44.98;100099.48;1800970;78;21058;-65
2021/11/12 08:20:41;;;;;;;11.57;10.43;;;;;;;13.73;44.94;100102.42;1760505;80;21037;-64
2021/11/12 08:23:11;;;;;;;12.90;10.38;;;;;;;13.79;44.88;100103.06;1809898;78;21065;-65
2021/11/12 08:25:41;;;;;;;11.80;10.45;;;;;;;13.84;44.84;100096.66;1807272;78;21033;-64
2021/11/12 08:33:18;;;;;;;12.10;10.58;;;;;;;14.04;44.76;100105.48;1812840;78;20988;-66
2021/11/12 08:38:33;;;;;;;12.50;10.32;;;;;;;14.15;44.80;100103.20;1784210;80;21018;-66
2021/11/12 08:41:55;;;;;;;12.45;10.03;;;;;;;14.30;44.88;100092.53;1851291;76;28021;-66
2021/11/12 08:46:51;;;;;;;12.00;10.53;;;;;;;14.40;44.78;100096.78;1817710;77;21171;-64
2021/11/12 08:49:18;;;;;;;11.80;10.60;;;;;;;14.47;44.73;100096.38;1814618;78;21114;-65
2021/11/12 08:51:42;;;;;;;12.75;10.72;;;;;;;14.55;44.66;100094.93;1811630;77;21041;-65
2021/11/12 08:54:09;;;;;;;11.30;10.10;;;;;;;14.61;44.57;100094.22;1812331;77;21032;-65
2021/11/12 08:56:37;;;;;;;11.95;9.98;;;;;;;14.69;44.46;100098.63;1806793;77;20992;-65
2021/11/12 08:59:04;;;;;;;11.33;10.00;;;;;;;14.76;44.36;100096.88;1816458;77;21068;-67
2021/11/12 09:01:30;;;;;;;12.28;10.98;;;;;;;14.84;44.28;100089.27;1809823;77;21447;-62
2021/11/12 09:03:58;;;;;;;11.40;10.05;;;;;;;14.92;44.20;100081.94;1811397;77;21046;-63
2021/11/12 09:06:25;;;;;;;10.48;9.40;;;;;;;15.00;44.13;100087.69;1811008;77;21215;-63
2021/11/12 09:08:52;;;;;;;11.90;10.70;;;;;;;15.09;44.08;100087.08;1823458;77;21482;-62
2021/11/12 09:11:18;;;;;;;10.90;9.58;;;;;;;15.18;44.03;100088.59;1812742;77;23234;-63
2021/11/12 09:13:49;;;;;;;11.45;10.00;;;;;;;15.24;44.01;100086.52;1814491;77;22181;-61
2021/11/12 09:16:15;;;;;;;13.05;9.98;;;;;;;15.32;43.94;100086.91;1814090;77;21237;-63
2021/11/12 09:18:48;;;;;;;12.43;9.85;;;;;;;15.39;43.90;100095.81;1808454;78;21518;-62
2021/11/12 09:21:16;;;;;;;11.37;10.00;;;;;;;15.43;43.89;100094.44;1805412;77;21627;-62
2021/11/12 09:23:43;;;;;;;11.28;9.70;;;;;;;15.47;43.86;100092.18;1807335;77;21839;-62
2021/11/12 09:26:10;;;;;;;9.85;8.85;;;;;;;15.50;43.83;100092.63;1806513;78;21608;-62
2021/11/12 09:28:36;;;;;;;11.03;9.63;;;;;;;15.53;43.77;100087.42;1806380;77;21064;-62
2021/11/12 09:31:04;;;;;;;10.72;9.58;;;;;;;15.54;43.71;100084.53;1806192;78;21509;-64
2021/11/12 09:33:31;;;;;;;11.05;9.33;;;;;;;15.58;43.66;100082.82;1810362;77;21119;-62
2021/11/12 09:35:58;;;;;;;10.05;9.05;;;;;;;15.59;43.58;100079.95;1814214;77;21141;-63
2021/11/12 09:38:26;;;;;;;10.23;9.10;;;;;;;15.64;43.50;100082.86;1807047;77;21076;-66
2021/11/12 09:40:55;;;;;;;10.23;9.23;;;;;;;15.67;43.47;100073.64;1805577;77;21084;-66
2021/11/12 09:43:23;;;;;;;11.78;9.83;;;;;;;15.71;43.42;100074.38;1813160;77;21517;-65
2021/11/12 09:45:50;;;;;;;11.30;9.98;;;;;;;15.75;43.39;100071.36;1808078;77;21065;-66
2021/11/12 09:48:18;;;;;;;9.90;8.90;;;;;;;15.78;43.35;100083.86;1781416;79;21372;-66
2021/11/12 09:50:44;;;;;;;10.82;9.48;;;;;;;15.73;43.32;100075.05;1764970;78;21075;-65
2021/11/12 09:53:12;;;;;;;9.25;8.35;;;;;;;15.84;43.26;100092.45;1762254;79;21030;-66
2021/11/12 09:55:38;;;;;;;10.32;9.23;;;;;;;15.87;43.19;100088.03;1763306;78;21101;-66
2021/11/12 09:58:06;;;;;;;10.48;8.98;;;;;;;15.87;43.17;100081.33;1760760;78;21088;-65
2021/11/12 10:00:34;;;;;;;10.70;8.53;;;;;;;15.90;43.15;100080.13;1762452;78;21109;-66
2021/11/12 10:03:02;;;;;;;10.75;8.90;;;;;;;15.91;43.12;100073.22;1767927;79;21045;-65
2021/11/12 10:05:35;;;;;;;9.55;8.45;;;;;;;15.94;43.12;100080.06;1767096;78;21025;-66
2021/11/12 10:08:04;;;;;;;9.58;8.68;;;;;;;15.97;43.10;100079.66;1764191;78;21078;-67
2021/11/12 10:10:30;;;;;;;9.98;8.83;;;;;;;16.00;43.09;100071.75;1711536;79;21108;-67
2021/11/12 10:12:57;;;;;;;10.05;9.03;;;;;;;16.04;42.99;100077.03;1764970;78;21847;-67
2021/11/12 10:15:30;;;;;;;10.48;9.38;;;;;;;16.08;42.94;100077.78;1765984;79;21605;-67
2021/11/12 10:17:55;;;;;;;9.50;8.55;;;;;;;16.16;42.92;100079.48;1761538;78;21564;-65
2021/11/12 10:20:22;;;;;;;8.98;8.15;;;;;;;16.23;42.96;100076.34;1696542;80;21108;-66
2021/11/12 10:22:51;;;;;;;9.23;8.28;;;;;;;16.31;42.94;100076.69;1768819;79;21552;-67
2021/11/12 10:25:17;;;;;;;10.00;8.88;;;;;;;16.37;42.90;100081.78;1764133;79;22178;-66
2021/11/12 10:27:50;;;;;;;10.78;8.53;;;;;;;16.43;42.87;100087.69;1772541;78;21049;-67
2021/11/12 10:30:22;;;;;;;9.85;8.23;;;;;;;16.48;42.85;100082.56;1773681;78;21041;-67
2021/11/12 10:32:49;;;;;;;9.83;7.42;;;;;;;16.48;42.85;100082.56;1781365;79;21072;-66
2021/11/12 10:35:23;;;;;;;9.35;8.35;;;;;;;16.51;42.82;100089.70;1770387;78;21564;-67
2021/11/12 10:37:50;;;;;;;8.85;7.83;;;;;;;16.53;42.79;100080.09;1766305;78;21793;-67
2021/11/12 10:40:22;;;;;;;8.50;7.67;;;;;;;16.54;42.75;100072.38;1767227;79;21077;-65
2021/11/12 10:42:53;;;;;;;8.53;7.70;;;;;;;16.55;42.74;100075.36;1760564;79;21075;-67
2021/11/12 10:45:23;;;;;;;8.38;7.47;;;;;;;16.55;42.73;100068.66;1755582;80;21010;-67
2021/11/12 10:47:55;;;;;;;8.90;7.90;;;;;;;16.56;42.70;100076.20;1762685;80;21004;-67
2021/11/12 10:50:29;;;;;;;9.33;8.33;;;;;;;16.57;42.70;100075.17;1758102;80;21038;-68
2021/11/12 10:53:16;;;;;;;8.90;7.92;;;;;;;16.56;42.70;100073.53;1780836;78;21528;-65
2021/11/12 10:55:44;;;;;;;8.38;7.40;;;;;;;16.57;42.70;100064.44;1791317;78;21071;-67
2021/11/12 10:58:12;;;;;;;9.13;8.18;;;;;;;16.56;42.74;100070.33;1786353;78;21024;-66
2021/11/12 11:00:45;;;;;;;8.53;7.65;;;;;;;16.56;42.72;100072.19;1784944;78;21049;-66
2021/11/12 11:03:20;;;;;;;8.83;8.00;;;;;;;16.56;42.70;100066.30;1747000;81;21560;-66
2021/11/12 11:05:52;;;;;;;8.33;7.53;;;;;;;16.56;42.68;100077.03;1786584;78;21058;-65
2021/11/12 11:08:20;;;;;;;8.15;7.33;;;;;;;16.55;42.71;100070.00;1757189;81;22075;-65
2021/11/12 11:10:53;;;;;;;8.58;7.70;;;;;;;16.56;42.68;100073.01;1779578;79;21605;-66
2021/11/12 11:13:25;;;;;;;8.73;7.60;;;;;;;16.56;42.71;100077.03;1761190;80;21303;-65
2021/11/12 11:15:55;;;;;;;8.08;7.28;;;;;;;16.58;42.72;100074.16;1771774;80;21875;-66
2021/11/12 11:18:40;;;;;;;8.38;7.55;;;;;;;16.58;42.77;100079.00;1763630;80;21470;-66
2021/11/12 11:23:55;;;;;;;8.28;7.47;;;;;;;16.60;42.76;100084.17;1765494;80;21030;-65
2021/11/12 11:26:28;;;;;;;7.35;6.65;;;;;;;16.59;42.80;100077.98;1764769;80;21021;-65
2021/11/12 11:28:56;;;;;;;;;;;;;;;16.60;42.83;100085.51;1772593;80;21215;-65
2021/11/12 11:31:22;;;;;;;8.75;7.83;;;;;;;16.61;42.88;100083.12;1763451;80;20163;-65
2021/11/12 11:33:50;;;;;;;8.58;7.70;;;;;;;16.56;42.96;100081.05;1780886;78;21035;-65
2021/11/12 11:36:20;;;;;;;8.33;7.53;;;;;;;16.58;42.97;100082.20;1766459;80;21034;-65
2021/11/12 11:38:47;;;;;;;8.15;7.35;;;;;;;16.58;43.02;100087.05;1783799;79;21103;-66
2021/11/12 11:41:16;;;;;;;8.05;7.35;;;;;;;16.60;42.99;100090.35;1780565;78;21963;-67
2021/11/12 11:43:43;;;;;;;7.72;6.92;;;;;;;16.60;43.01;100084.98;1761541;80;21030;-68
2021/11/12 11:46:16;;;;;;;8.73;7.87;;;;;;;16.61;43.03;100087.15;1764390;80;21049;-67
2021/11/12 11:48:44;;;;;;;8.23;7.50;;;;;;;16.61;43.05;100084.47;1749641;81;21081;-68
2021/11/12 11:51:24;;;;;;;8.35;7.55;;;;;;;16.60;43.08;100090.35;1767939;79;22182;-68
2021/11/12 11:53:50;;;;;;;8.13;7.22;;;;;;;16.60;43.05;100086.85;1769217;80;21123;-66
2021/11/12 11:56:30;;;;;;;8.63;7.72;;;;;;;16.59;43.04;100087.38;1777176;78;21149;-68
2021/11/12 11:58:58;;;;;;;7.87;7.17;;;;;;;16.59;43.09;100091.39;1765560;79;21159;-67
2021/11/12 12:01:30;;;;;;;7.80;7.00;;;;;;;16.58;43.13;100091.59;1758814;78;21085;-68
2021/11/12 12:04:18;;;;;;;7.65;6.92;;;;;;;16.56;43.17;100092.30;1772045;78;21670;-67
2021/11/12 12:07:18;;;;;;;8.03;7.22;;;;;;;16.55;43.22;100100.02;1774338;78;21158;-67
2021/11/12 12:09:53;;;;;;;7.45;6.75;;;;;;;16.51;43.23;100095.06;1769683;78;21090;-67
2021/11/12 12:12:37;;;;;;;7.55;6.75;;;;;;;16.48;43.29;100101.34;1776861;78;21571;-66
2021/11/12 12:15:17;;;;;;;8.33;7.45;;;;;;;16.46;43.40;100100.70;1751031;80;21013;-67
2021/11/12 12:17:46;;;;;;;9.10;7.70;;;;;;;16.43;43.45;100101.91;1760039;78;21044;-67
2021/11/12 12:35:31;;;;;;;7.60;6.90;;;;;;;16.31;43.59;100113.70;1769646;80;21584;-63
2021/11/12 13:25:55;;;;;;;7.25;6.55;;;;;;;15.99;43.85;100135.73;1757116;79;21075;-57
2021/11/12 13:28:34;;;;;;;8.43;7.20;;;;;;;15.96;43.86;100139.64;1789714;78;21028;-58
2021/11/12 13:31:14;;;;;;;7.78;6.50;;;;;;;15.94;43.88;100140.34;1786614;78;21204;-57
2021/11/12 13:33:44;;;;;;;7.40;6.67;;;;;;;15.92;43.87;100144.55;1774730;78;21083;-57
2021/11/12 13:36:31;;;;;;;6.83;6.17;;;;;;;15.91;43.90;100143.40;1777550;78;21623;-59
2021/11/12 13:39:19;;;;;;;7.05;6.35;;;;;;;15.88;43.92;100144.63;1742594;81;21043;-56
2021/11/12 13:41:55;;;;;;;8.30;6.75;;;;;;;15.87;43.96;100148.83;1785200;79;21032;-58
2021/11/12 13:44:30;;;;;;;7.10;6.37;;;;;;;15.83;43.99;100144.36;1763497;78;21180;-57
2021/11/12 13:47:03;;;;;;;8.35;7.30;;;;;;;15.80;44.00;100147.44;1758155;78;21041;-59
2021/11/12 13:49:47;;;;;;;7.45;6.70;;;;;;;15.79;44.02;100151.12;1762224;78;21049;-59
2021/11/12 13:52:28;;;;;;;7.35;6.65;;;;;;;15.76;44.05;100148.85;1771396;78;21321;-58
2021/11/12 13:55:05;;;;;;;7.92;6.90;;;;;;;15.74;44.10;100160.23;1760549;79;21556;-59
2021/11/12 13:57:34;;;;;;;9.75;7.25;;;;;;;15.71;44.27;100159.27;1755937;78;21066;-57
2021/11/12 14:00:06;;;;;;;8.73;7.45;;;;;;;15.69;44.42;100167.48;1761644;78;21049;-57
2021/11/12 14:03:10;;;;;;;8.03;7.22;;;;;;;15.66;44.43;100165.18;1762433;79;21081;-56
2021/11/12 14:05:39;;;;;;;7.10;6.40;;;;;;;15.64;44.44;100165.88;1766437;79;21248;-57
2021/11/12 14:08:15;;;;;;;8.58;7.55;;;;;;;15.61;44.48;100164.12;1737293;78;21014;-58
2021/11/12 14:10:47;;;;;;;7.67;6.70;;;;;;;15.58;44.55;100164.49;1743110;80;21121;-56
2021/11/12 14:13:16;;;;;;;8.00;7.03;;;;;;;15.54;44.56;100162.18;1768857;78;21066;-56
2021/11/12 14:16:13;;;;;;;7.67;6.78;;;;;;;15.51;44.59;100161.24;1771507;78;21494;-58
2021/11/12 14:18:45;;;;;;;7.60;6.90;;;;;;;15.48;44.63;100167.48;1760551;79;21059;-57
2021/11/12 14:41:21;;;;;;;9.15;8.08;;;;;;;15.17;45.00;100191.32;1815859;78;21103;-57
2021/11/12 14:49:01;;;;;;;9.35;7.97;;;;;;;15.07;45.12;100209.01;1825225;77;21224;-57
2021/11/12 14:54:37;;;;;;;9.13;8.23;;;;;;;15.03;45.19;100211.73;1819691;77;21080;-56
2021/11/12 14:57:08;;;;;;;8.68;7.78;;;;;;;14.99;45.24;100219.81;1821540;77;21009;-58
2021/11/12 14:59:35;;;;;;;8.63;7.70;;;;;;;14.96;45.27;100218.83;1818410;77;21356;-57
2021/11/12 15:02:03;;;;;;;8.60;7.70;;;;;;;14.92;45.31;100217.55;1810732;78;20984;-57
2021/11/12 15:04:28;;;;;;;9.20;8.03;;;;;;;14.91;45.35;100227.91;1826478;77;22272;-57
2021/11/12 15:06:56;;;;;;;8.85;7.45;;;;;;;14.89;45.37;100229.94;1826674;77;21025;-58
2021/11/12 15:09:28;;;;;;;8.63;7.75;;;;;;;14.87;45.39;100229.30;1818056;78;21080;-57
2021/11/12 15:11:52;;;;;;;8.90;7.75;;;;;;;14.86;45.44;100238.35;1827985;77;20994;-57
2021/11/12 15:14:25;;;;;;;9.88;7.97;;;;;;;14.84;45.45;100240.37;1808316;77;21073;-56
2021/11/12 15:16:47;;;;;;;8.40;7.60;;;;;;;14.81;45.46;100236.20;1825641;77;21103;-56
2021/11/12 15:19:17;;;;;;;10.28;8.95;;;;;;;14.80;45.49;100245.27;1828046;77;21045;-57
2021/11/12 15:24:34;;;;;;;10.00;8.63;;;;;;;14.78;45.55;100245.13;1816100;77;21510;-58
2021/11/12 15:27:25;;;;;;;9.23;8.23;;;;;;;14.76;45.57;100247.98;1817867;77;21583;-57
2021/11/12 15:29:56;;;;;;;;;;;;;;;14.74;45.59;100253.51;1808326;77;21533;-56
2021/11/12 15:34:56;;;;;;;8.78;7.87;;;;;;;14.67;45.69;100261.93;1753113;81;21035;-58
2021/11/12 15:37:41;;;;;;;9.93;8.03;;;;;;;14.67;45.72;100265.12;1772772;80;20993;-57
2021/11/12 15:43:05;;;;;;;9.13;7.85;;;;;;;14.64;45.73;100264.13;1756534;81;21157;-58
2021/11/12 15:48:13;;;;;;;9.38;8.33;;;;;;;14.62;45.76;100278.19;1754981;80;21038;-57
2021/11/12 15:56:42;;;;;;;10.13;9.03;;;;;;;14.58;45.81;100277.72;1767530;80;21058;-60
2021/11/12 16:14:45;;;;;;;11.28;8.83;;;;;;;14.51;45.93;100292.81;1756909;81;21064;-57
2021/11/12 16:25:09;;;;;;;9.80;8.80;;;;;;;14.48;45.96;100302.00;1674983;85;21580;-55
2021/11/12 16:27:29;;;;;;;8.95;8.05;;;;;;;14.48;45.96;100311.87;1674762;85;21119;-58
2021/11/12 16:30:00;;;;;;;10.60;8.60;;;;;;;14.47;45.99;100303.03;1710180;81;21063;-56
2021/11/12 16:32:38;;;;;;;10.18;8.80;;;;;;;14.47;45.99;100308.37;1773256;80;21562;-57
2021/11/12 16:35:01;;;;;;;9.35;8.43;;;;;;;14.46;46.03;100313.38;1769466;80;21323;-56
2021/11/12 16:37:28;;;;;;;11.55;9.25;;;;;;;14.45;46.00;100311.73;1757452;80;21510;-56
2021/11/12 16:40:05;;;;;;;9.50;8.30;;;;;;;14.46;46.02;100313.38;1750946;80;21021;-57
2021/11/12 16:42:40;;;;;;;9.58;8.65;;;;;;;14.47;46.03;100319.58;1757243;80;21250;-57
2021/11/12 16:45:12;;;;;;;9.20;8.23;;;;;;;14.45;46.04;100315.74;1756613;80;21014;-57
2021/11/12 16:50:23;;;;;;;9.75;8.75;;;;;;;14.44;46.06;100312.73;1754175;79;21029;-57
2021/11/12 16:58:02;;;;;;;10.28;9.13;;;;;;;14.42;46.09;100320.61;1767491;79;21061;-56